TimeEDT,TemperatureF,Dew PointF,Humidity,Sea Level PressureIn,VisibilityMPH,Wind Direction,Wind SpeedMPH,Gust SpeedMPH,PrecipitationIn,Events,Conditions,WindDirDegrees,DateUTC
12:00 AM,46.4,41.0,81,29.67,25.0,SW,8.1,-,N/A,,Partly Cloudy,230,2012-10-21 04:00:00
1:00 AM,42.8,41.0,93,29.68,25.0,SSW,5.8,-,N/A,,Partly Cloudy,210,2012-10-21 05:00:00
2:00 AM,44.6,42.8,93,29.70,25.0,SSW,4.6,-,N/A,,Mostly Cloudy,200,2012-10-21 06:00:00
3:00 AM,46.4,44.6,93,29.70,25.0,SSW,10.4,-,N/A,,Overcast,210,2012-10-21 07:00:00
4:00 AM,46.4,44.6,93,-9999,25.0,SSW,5.8,-,N/A,,Overcast,210,2012-10-21 08:00:00
5:00 AM,48.2,44.6,87,29.70,25.0,SW,10.4,17.3,N/A,,Overcast,220,2012-10-21 09:00:00
6:00 AM,48.2,44.6,87,29.70,20.0,WSW,11.5,18.4,N/A,,Overcast,240,2012-10-21 10:00:00
7:00 AM,48.2,44.6,87,29.72,25.0,SW,8.1,17.3,N/A,,Overcast,220,2012-10-21 11:00:00
7:30 AM,48.2,44.6,87,29.72,15.0,WSW,12.7,21.9,N/A,Rain,Light Rain Showers,240,2012-10-21 11:30:00
7:52 AM,48.2,44.6,87,29.73,25.0,SW,12.7,19.6,N/A,,Mostly Cloudy,230,2012-10-21 11:52:00
8:00 AM,48.2,44.6,87,29.73,25.0,WSW,8.1,19.6,N/A,,Mostly Cloudy,240,2012-10-21 12:00:00
8:11 AM,48.2,44.6,87,29.73,25.0,SW,8.1,21.9,N/A,,Mostly Cloudy,230,2012-10-21 12:11:00
9:00 AM,48.2,42.8,82,29.74,25.0,WSW,11.5,23.0,N/A,,Mostly Cloudy,240,2012-10-21 13:00:00
10:00 AM,50.0,42.8,76,29.73,25.0,WSW,13.8,19.6,N/A,,Mostly Cloudy,240,2012-10-21 14:00:00
11:00 AM,50.0,42.8,76,29.74,25.0,WSW,15.0,23.0,N/A,,Mostly Cloudy,250,2012-10-21 15:00:00
12:00 PM,50.0,42.8,76,29.75,45.0,WSW,12.7,23.0,N/A,Rain,Light Rain Showers,240,2012-10-21 16:00:00
1:00 PM,51.8,42.8,71,29.74,45.0,WSW,11.5,25.3,N/A,,Overcast,240,2012-10-21 17:00:00
2:00 PM,51.8,42.8,71,29.75,45.0,WSW,13.8,27.6,N/A,,Overcast,250,2012-10-21 18:00:00
3:00 PM,51.8,44.6,76,29.76,25.0,West,9.2,18.4,N/A,Rain,Light Rain Showers,270,2012-10-21 19:00:00
4:00 PM,50.0,46.4,87,29.78,25.0,West,6.9,-,N/A,,Overcast,260,2012-10-21 20:00:00
5:00 PM,51.8,42.8,71,29.80,45.0,West,9.2,-,N/A,Rain,Light Rain Showers,270,2012-10-21 21:00:00
6:00 PM,51.8,42.8,71,29.82,25.0,WSW,8.1,18.4,N/A,,Overcast,250,2012-10-21 22:00:00
7:00 PM,51.8,41.0,67,29.83,25.0,West,10.4,19.6,N/A,,Overcast,270,2012-10-21 23:00:00
8:00 PM,50.0,42.8,76,29.85,25.0,West,3.5,-,N/A,,Mostly Cloudy,280,2012-10-22 00:00:00
9:00 PM,50.0,41.0,71,29.86,25.0,West,5.8,-,N/A,,Overcast,280,2012-10-22 01:00:00
10:00 PM,48.2,41.0,76,29.87,25.0,West,5.8,-,N/A,,Overcast,280,2012-10-22 02:00:00
11:00 PM,48.2,41.0,76,29.88,25.0,West,8.1,-,N/A,,Mostly Cloudy,260,2012-10-22 03:00:00